createdAt,value
2022-09-30T00:01:34.432Z,16.60
2022-09-30T00:04:01.891Z,17.05
2022-09-30T00:06:30.034Z,15.63
2022-09-30T00:08:57.944Z,16.90
2022-09-30T00:11:28.851Z,18.85
2022-09-30T00:13:57.639Z,15.73
2022-09-30T00:16:26.220Z,13.77
2022-09-30T00:18:55.508Z,13.43
2022-09-30T00:21:23.184Z,13.27
2022-09-30T00:23:50.032Z,14.43
2022-09-30T00:26:19.503Z,14.23
2022-09-30T00:28:52.266Z,13.15
2022-09-30T00:31:20.475Z,15.02
2022-09-30T00:34:06.218Z,14.90
2022-09-30T00:36:35.121Z,15.73
2022-09-30T00:39:01.823Z,13.20
2022-09-30T00:41:28.471Z,16.88
2022-09-30T00:43:55.129Z,14.90
2022-09-30T00:46:35.667Z,16.15
2022-09-30T00:49:14.137Z,15.73
2022-09-30T00:51:45.473Z,21.60
2022-09-30T00:54:21.766Z,17.10
2022-09-30T00:56:58.211Z,17.42
2022-09-30T00:59:33.235Z,16.50
2022-09-30T01:02:01.206Z,19.17
2022-09-30T01:04:31.451Z,22.52
2022-09-30T01:07:06.967Z,18.17
2022-09-30T01:09:36.294Z,17.45
2022-09-30T01:12:09.553Z,16.52
2022-09-30T01:14:37.504Z,21.10
2022-09-30T01:17:48.419Z,19.63
2022-09-30T01:20:52.455Z,18.25
2022-09-30T01:23:56.731Z,21.42
2022-09-30T01:26:53.534Z,19.52
2022-09-30T01:29:51.216Z,25.35
2022-09-30T01:32:30.046Z,15.10
2022-09-30T01:35:12.015Z,46.65
2022-09-30T01:38:00.383Z,47.00
2022-09-30T01:40:43.024Z,19.98
2022-09-30T01:43:23.343Z,20.83
2022-09-30T01:45:58.457Z,33.30
2022-09-30T01:48:57.790Z,14.90
2022-09-30T01:51:30.317Z,29.63
2022-09-30T01:54:05.345Z,14.95
2022-09-30T01:56:46.044Z,18.00
2022-09-30T01:59:22.484Z,15.77
2022-09-30T02:01:58.476Z,22.20
2022-09-30T02:04:43.002Z,14.07
2022-09-30T02:07:16.278Z,11.90
2022-09-30T02:09:55.135Z,16.95
2022-09-30T02:12:26.981Z,14.38
2022-09-30T02:15:01.632Z,14.40
2022-09-30T02:17:43.226Z,17.55
2022-09-30T02:20:15.746Z,15.60
2022-09-30T02:23:16.879Z,13.40
2022-09-30T02:25:48.271Z,17.00
2022-09-30T02:28:23.289Z,14.98
2022-09-30T02:30:53.862Z,20.50
2022-09-30T02:33:26.038Z,15.25
2022-09-30T02:36:03.406Z,23.52
2022-09-30T02:38:37.160Z,34.58
2022-09-30T02:41:12.703Z,54.75
2022-09-30T02:43:42.155Z,31.88
2022-09-30T02:46:20.824Z,15.60
2022-09-30T02:49:04.944Z,24.40
2022-09-30T02:51:39.472Z,29.35
2022-09-30T02:54:22.700Z,18.17
2022-09-30T02:57:20.508Z,18.95
2022-09-30T02:59:52.148Z,13.10
2022-09-30T03:02:20.436Z,13.55
2022-09-30T03:04:49.796Z,51.28
2022-09-30T03:07:16.352Z,30.33
2022-09-30T03:09:42.933Z,36.50
2022-09-30T03:12:34.421Z,44.72
2022-09-30T03:15:22.745Z,32.55
2022-09-30T03:18:27.692Z,36.88
2022-09-30T03:21:24.659Z,15.10
2022-09-30T03:24:00.463Z,20.23
2022-09-30T03:26:36.232Z,15.23
2022-09-30T03:29:28.304Z,18.02
2022-09-30T03:32:30.005Z,26.85
2022-09-30T03:34:57.918Z,27.83
2022-09-30T03:37:45.561Z,18.50
2022-09-30T03:40:25.348Z,15.93
2022-09-30T03:43:06.541Z,24.65
2022-09-30T03:45:44.671Z,44.38
2022-09-30T03:48:13.085Z,17.50
2022-09-30T03:50:41.521Z,30.45
2022-09-30T03:53:13.022Z,52.35
2022-09-30T03:55:51.232Z,28.90
2022-09-30T03:58:23.587Z,12.88
2022-09-30T04:00:52.985Z,19.55
2022-09-30T04:03:21.809Z,16.17
2022-09-30T04:05:49.126Z,12.98
2022-09-30T04:08:16.246Z,32.17
2022-09-30T04:10:46.552Z,16.73
2022-09-30T04:13:13.064Z,28.15
2022-09-30T04:15:40.734Z,23.75
2022-09-30T04:18:07.467Z,21.88
2022-09-30T04:20:33.940Z,14.00
2022-09-30T04:23:01.484Z,25.20
2022-09-30T04:25:29.145Z,17.13
2022-09-30T04:27:56.635Z,22.33
2022-09-30T04:30:26.302Z,22.65
2022-09-30T04:32:54.809Z,18.77
2022-09-30T04:35:21.537Z,21.10
2022-09-30T04:37:48.424Z,24.23
2022-09-30T04:40:16.627Z,26.00
2022-09-30T04:42:45.185Z,21.00
2022-09-30T04:45:14.637Z,36.70
2022-09-30T04:47:45.559Z,24.42
2022-09-30T04:50:13.388Z,18.23
2022-09-30T04:52:43.552Z,20.67
2022-09-30T04:55:11.006Z,24.45
2022-09-30T04:57:43.438Z,28.15
2022-09-30T05:00:11.071Z,19.48
2022-09-30T05:02:37.754Z,23.95
2022-09-30T05:05:04.547Z,16.02
2022-09-30T05:07:33.647Z,13.43
2022-09-30T05:10:00.052Z,20.20
2022-09-30T05:12:27.097Z,15.50
2022-09-30T05:14:53.610Z,15.85
2022-09-30T05:17:20.402Z,17.15
2022-09-30T05:19:47.014Z,13.55
2022-09-30T05:22:14.489Z,14.25
2022-09-30T05:24:41.287Z,15.65
2022-09-30T05:27:07.966Z,15.93
2022-09-30T05:29:34.470Z,15.50
2022-09-30T05:32:01.316Z,34.70
2022-09-30T05:34:28.028Z,16.70
2022-09-30T05:36:54.643Z,14.20
2022-09-30T05:39:21.473Z,15.50
2022-09-30T05:41:48.105Z,14.25
2022-09-30T05:44:15.826Z,15.95
2022-09-30T05:46:43.880Z,14.20
2022-09-30T05:49:10.500Z,13.77
2022-09-30T05:51:36.997Z,19.70
2022-09-30T05:54:03.663Z,17.17
2022-09-30T05:56:30.137Z,13.25
2022-09-30T05:58:57.036Z,14.90
2022-09-30T06:01:23.700Z,13.00
2022-09-30T06:03:50.355Z,13.30
2022-09-30T06:06:19.873Z,14.30
2022-09-30T06:08:46.978Z,11.52
2022-09-30T06:11:23.390Z,15.65
2022-09-30T06:13:50.236Z,15.30
2022-09-30T06:16:19.437Z,14.50
2022-09-30T06:18:46.454Z,10.88
2022-09-30T06:21:15.744Z,12.90
2022-09-30T06:23:43.155Z,13.60
2022-09-30T06:26:14.574Z,11.82
2022-09-30T06:28:41.812Z,14.40
2022-09-30T06:31:08.842Z,12.63
2022-09-30T06:33:35.887Z,13.95
2022-09-30T06:36:04.883Z,12.45
2022-09-30T06:38:32.967Z,12.35
2022-09-30T06:41:00.815Z,11.48
2022-09-30T06:43:27.577Z,10.88
2022-09-30T06:46:00.242Z,13.27
2022-09-30T06:48:38.380Z,13.98
2022-09-30T06:51:05.537Z,12.30
2022-09-30T06:53:32.085Z,12.85
2022-09-30T06:55:58.942Z,13.40
2022-09-30T06:58:25.740Z,15.30
2022-09-30T07:01:06.054Z,11.77
2022-09-30T07:03:36.711Z,11.95
2022-09-30T07:06:05.904Z,12.65
2022-09-30T07:08:34.918Z,18.17
2022-09-30T07:11:04.604Z,11.90
2022-09-30T07:13:33.103Z,13.90
2022-09-30T07:16:00.357Z,24.15
2022-09-30T07:18:28.144Z,10.70
2022-09-30T07:20:56.647Z,16.48
2022-09-30T07:23:26.931Z,13.57
2022-09-30T07:26:00.412Z,11.90
2022-09-30T07:28:34.032Z,11.02
2022-09-30T07:31:30.712Z,12.77
2022-09-30T07:33:53.214Z,10.77
2022-09-30T07:36:31.850Z,8.88
2022-09-30T07:39:02.357Z,9.40
2022-09-30T07:41:29.238Z,13.60
2022-09-30T07:43:58.904Z,10.85
2022-09-30T07:46:30.745Z,8.85
2022-09-30T07:49:07.179Z,9.57
2022-09-30T07:51:40.467Z,10.25
2022-09-30T07:54:13.652Z,10.27
2022-09-30T07:57:11.849Z,10.88
2022-09-30T07:59:30.824Z,9.25
2022-09-30T08:01:58.264Z,10.00
2022-09-30T08:04:28.250Z,9.48
2022-09-30T08:07:00.705Z,9.45
2022-09-30T08:09:30.333Z,9.98
2022-09-30T08:11:57.907Z,9.95
2022-09-30T08:14:28.198Z,11.35
2022-09-30T08:16:56.991Z,11.18
2022-09-30T08:19:25.395Z,9.15
2022-09-30T08:21:55.406Z,9.30
2022-09-30T08:24:23.928Z,10.43
2022-09-30T08:26:51.732Z,11.40
2022-09-30T08:29:42.648Z,9.30
2022-09-30T08:32:08.678Z,12.38
2022-09-30T08:34:36.034Z,12.35
2022-09-30T08:37:07.748Z,13.10
2022-09-30T08:39:35.824Z,11.57
2022-09-30T08:42:36.079Z,11.77
2022-09-30T08:45:11.551Z,9.65
2022-09-30T08:48:01.017Z,9.73
2022-09-30T08:51:00.097Z,8.95
2022-09-30T08:53:31.495Z,10.35
2022-09-30T08:56:05.735Z,11.98
2022-09-30T08:58:36.848Z,9.60
2022-09-30T09:01:18.536Z,9.75
2022-09-30T09:03:52.358Z,9.77
2022-09-30T09:06:25.414Z,9.95
2022-09-30T09:08:58.329Z,10.35
2022-09-30T09:11:42.800Z,11.63
2022-09-30T09:14:39.193Z,12.05
2022-09-30T09:17:35.213Z,13.57
2022-09-30T09:20:14.738Z,11.77
2022-09-30T09:22:46.257Z,12.50
2022-09-30T09:25:17.152Z,12.98
2022-09-30T09:30:22.602Z,15.65
2022-09-30T09:33:05.706Z,11.98
2022-09-30T09:35:48.626Z,14.02
2022-09-30T09:38:40.332Z,14.00
2022-09-30T09:41:44.000Z,12.60
2022-09-30T09:44:22.006Z,14.27
2022-09-30T09:47:04.565Z,11.45
2022-09-30T09:49:41.119Z,13.60
2022-09-30T09:52:16.210Z,12.65
2022-09-30T09:54:57.402Z,12.13
2022-09-30T09:57:32.870Z,16.25
2022-09-30T10:00:39.550Z,14.07
2022-09-30T10:03:15.864Z,13.98
2022-09-30T10:05:45.305Z,16.25
2022-09-30T10:08:19.814Z,14.15
2022-09-30T10:10:46.665Z,13.95
2022-09-30T10:13:41.195Z,13.70
2022-09-30T10:16:22.927Z,15.48
2022-09-30T10:18:49.469Z,14.65
2022-09-30T10:21:25.051Z,14.27
2022-09-30T10:23:58.686Z,13.77
2022-09-30T10:28:54.266Z,13.15
2022-09-30T10:31:27.086Z,12.57
2022-09-30T10:34:16.951Z,10.48
2022-09-30T10:36:44.804Z,12.13
2022-09-30T10:39:31.212Z,11.68
2022-09-30T10:42:25.080Z,12.23
2022-09-30T10:44:57.148Z,11.98
2022-09-30T10:47:26.850Z,11.55
2022-09-30T10:50:17.533Z,12.60
2022-09-30T10:52:55.536Z,9.90
2022-09-30T10:55:22.614Z,10.25
2022-09-30T10:57:52.835Z,9.70
2022-09-30T11:00:22.771Z,7.90
2022-09-30T11:03:12.990Z,10.45
2022-09-30T11:05:43.652Z,8.70
2022-09-30T11:08:26.160Z,8.15
2022-09-30T11:11:16.863Z,7.78
2022-09-30T11:14:02.657Z,7.50
2022-09-30T11:16:57.049Z,7.28
2022-09-30T11:20:02.304Z,6.97
2022-09-30T11:22:48.301Z,6.30
2022-09-30T11:33:29.403Z,12.20
2022-09-30T11:37:08.085Z,8.25
2022-09-30T11:40:38.360Z,9.32
2022-09-30T11:43:31.550Z,9.15
2022-09-30T11:46:31.564Z,9.07
2022-09-30T11:49:24.114Z,7.53
2022-09-30T11:52:18.575Z,9.95
2022-09-30T11:55:15.481Z,12.02
2022-09-30T11:57:55.975Z,9.15
2022-09-30T12:00:23.573Z,8.55
2022-09-30T12:03:29.176Z,7.55
2022-09-30T12:06:03.894Z,11.15
2022-09-30T12:08:39.720Z,7.03
2022-09-30T12:11:16.559Z,7.70
2022-09-30T12:14:00.019Z,5.55
2022-09-30T12:16:35.245Z,7.65
2022-09-30T12:19:25.922Z,5.43
2022-09-30T12:22:06.862Z,7.25
2022-09-30T12:24:39.985Z,7.10
2022-09-30T12:27:30.007Z,6.80
2022-09-30T12:30:19.376Z,10.77
2022-09-30T12:32:46.446Z,6.80
2022-09-30T12:35:39.175Z,7.40
2022-09-30T12:38:32.972Z,6.45
2022-09-30T12:41:27.523Z,6.35
2022-09-30T12:44:57.041Z,6.53
2022-09-30T12:50:01.624Z,5.60
2022-09-30T12:52:34.326Z,4.70
2022-09-30T12:55:41.683Z,6.47
2022-09-30T12:58:20.734Z,5.80
2022-09-30T13:01:16.720Z,5.38
2022-09-30T13:03:59.263Z,5.97
2022-09-30T13:06:53.431Z,4.47
2022-09-30T13:09:30.852Z,5.30
2022-09-30T13:11:57.553Z,9.00
2022-09-30T13:14:27.924Z,6.22
2022-09-30T13:17:00.350Z,8.63
2022-09-30T13:19:44.768Z,5.28
2022-09-30T13:22:39.904Z,8.07
2022-09-30T13:25:27.323Z,8.20
2022-09-30T13:28:27.032Z,8.15
2022-09-30T13:31:19.307Z,7.35
2022-09-30T13:34:09.480Z,11.10
2022-09-30T13:36:41.516Z,7.55
2022-09-30T13:39:17.510Z,7.10
2022-09-30T13:41:47.277Z,6.43
2022-09-30T13:44:20.153Z,7.38
2022-09-30T13:46:51.928Z,10.65
2022-09-30T13:49:25.636Z,8.73
2022-09-30T13:51:55.252Z,7.32
2022-09-30T13:54:36.212Z,7.15
2022-09-30T13:57:05.041Z,7.70
2022-09-30T13:59:50.108Z,7.00
2022-09-30T14:02:50.724Z,7.78
2022-09-30T14:05:50.891Z,7.50
2022-09-30T14:09:01.931Z,6.88
2022-09-30T14:11:31.997Z,7.72
2022-09-30T14:14:28.026Z,5.82
2022-09-30T14:17:02.820Z,5.75
2022-09-30T14:19:37.157Z,7.20
2022-09-30T14:22:23.031Z,7.35
2022-09-30T14:24:50.888Z,9.77
2022-09-30T14:27:32.051Z,8.18
2022-09-30T14:35:38.472Z,7.40
2022-09-30T14:38:18.153Z,5.90
2022-09-30T14:40:53.971Z,5.88
2022-09-30T14:43:40.349Z,4.40
2022-09-30T14:46:31.663Z,5.68
2022-09-30T14:49:04.757Z,4.65
2022-09-30T14:51:38.320Z,4.78
2022-09-30T14:54:06.981Z,5.28
2022-09-30T14:56:36.964Z,5.28
2022-09-30T14:59:23.286Z,6.15
2022-09-30T15:01:55.687Z,4.32
2022-09-30T15:04:43.809Z,5.75
2022-09-30T15:07:12.804Z,4.93
2022-09-30T15:09:48.521Z,5.55
2022-09-30T15:12:19.390Z,5.07
2022-09-30T15:14:54.946Z,4.97
2022-09-30T15:17:25.373Z,5.07
2022-09-30T15:19:52.511Z,4.65
2022-09-30T15:22:24.404Z,4.32
2022-09-30T15:25:01.747Z,4.55
2022-09-30T15:27:50.571Z,4.50
2022-09-30T15:30:20.375Z,4.53
2022-09-30T15:32:51.923Z,3.00
2022-09-30T15:35:23.742Z,3.92
2022-09-30T15:40:53.604Z,2.85
2022-09-30T15:43:41.115Z,14.18
2022-09-30T15:50:06.054Z,5.28
2022-09-30T15:58:44.288Z,4.05
2022-09-30T16:01:36.872Z,5.22
2022-09-30T16:07:43.746Z,5.03
2022-09-30T16:10:44.689Z,6.68
2022-09-30T16:13:36.195Z,4.68
2022-09-30T16:16:21.487Z,5.95
2022-09-30T16:18:59.907Z,4.43
2022-09-30T16:21:55.597Z,13.93
2022-09-30T16:24:33.304Z,4.40
2022-09-30T16:27:29.363Z,5.10
2022-09-30T16:29:56.877Z,5.47
2022-09-30T16:32:35.113Z,4.72
2022-09-30T16:35:02.038Z,5.35
2022-09-30T16:40:22.537Z,4.20
2022-09-30T16:42:51.789Z,4.90
2022-09-30T16:45:18.938Z,6.47
2022-09-30T16:48:20.962Z,5.70
2022-09-30T16:51:02.332Z,6.38
2022-09-30T16:53:50.091Z,7.95
2022-09-30T16:56:37.508Z,6.40
2022-09-30T16:59:07.727Z,6.78
2022-09-30T17:01:40.819Z,8.38
2022-09-30T17:06:57.894Z,6.50
2022-09-30T17:09:29.836Z,6.30
2022-09-30T17:12:03.532Z,6.93
2022-09-30T17:14:30.829Z,8.05
2022-09-30T17:16:58.351Z,8.95
2022-09-30T17:19:25.421Z,11.30
2022-09-30T17:24:48.641Z,53.92
2022-09-30T17:30:07.472Z,12.43
2022-09-30T17:32:53.744Z,13.65
2022-09-30T17:35:20.700Z,13.05
2022-09-30T17:37:50.833Z,9.98
2022-09-30T17:40:36.905Z,10.10
2022-09-30T17:43:16.459Z,12.90
2022-09-30T17:45:46.617Z,8.82
2022-09-30T17:48:28.847Z,9.98
2022-09-30T17:51:04.136Z,11.23
2022-09-30T17:53:35.342Z,24.83
2022-09-30T17:56:10.590Z,12.93
2022-09-30T17:58:37.669Z,13.20
2022-09-30T18:01:10.772Z,16.65
2022-09-30T18:03:38.020Z,10.15
2022-09-30T18:06:08.449Z,10.43
2022-09-30T18:08:52.911Z,38.08
2022-09-30T18:11:30.838Z,15.45
2022-09-30T18:17:06.221Z,14.63
2022-09-30T18:19:33.882Z,15.98
2022-09-30T18:22:13.223Z,11.63
2022-09-30T18:24:59.173Z,14.15
2022-09-30T18:27:37.949Z,14.57
2022-09-30T18:30:07.223Z,18.90
2022-09-30T18:32:34.674Z,16.60
2022-09-30T18:35:02.731Z,16.52
2022-09-30T18:37:36.178Z,15.00
2022-09-30T18:40:03.202Z,15.25
2022-09-30T18:42:32.358Z,16.05
2022-09-30T18:44:59.930Z,17.60
2022-09-30T18:47:26.669Z,17.40
2022-09-30T18:49:53.430Z,16.73
2022-09-30T18:52:20.273Z,14.30
2022-09-30T18:54:54.303Z,15.90
2022-09-30T18:57:21.208Z,25.80
2022-09-30T18:59:51.194Z,18.00
2022-09-30T19:02:20.647Z,27.33
2022-09-30T19:04:49.346Z,26.30
2022-09-30T19:07:20.599Z,30.17
2022-09-30T19:09:47.891Z,18.10
2022-09-30T19:12:17.643Z,16.08
2022-09-30T19:14:45.653Z,21.50
2022-09-30T19:17:13.014Z,14.40
2022-09-30T19:19:46.137Z,14.35
2022-09-30T19:22:13.931Z,17.58
2022-09-30T19:24:42.675Z,19.90
2022-09-30T19:27:12.015Z,16.02
2022-09-30T19:29:40.662Z,15.07
2022-09-30T19:32:10.416Z,17.95
2022-09-30T19:34:38.279Z,19.00
2022-09-30T19:37:06.454Z,16.25
2022-09-30T19:39:44.665Z,14.75
2022-09-30T19:42:16.631Z,15.05
2022-09-30T19:44:43.364Z,17.38
2022-09-30T19:47:11.224Z,15.80
2022-09-30T19:49:38.406Z,16.98
2022-09-30T19:52:22.307Z,20.50
2022-09-30T19:57:17.910Z,16.45
2022-09-30T19:59:46.140Z,15.40
2022-09-30T20:02:15.898Z,20.05
2022-09-30T20:04:44.008Z,53.75
2022-09-30T20:07:21.807Z,17.75
2022-09-30T20:09:55.098Z,17.35
2022-09-30T20:12:21.887Z,17.95
2022-09-30T20:15:07.142Z,15.95
2022-09-30T20:17:36.441Z,19.73
2022-09-30T20:20:23.028Z,17.98
2022-09-30T20:23:02.180Z,15.73
2022-09-30T20:25:35.245Z,17.15
2022-09-30T20:28:10.047Z,16.48
2022-09-30T20:30:48.696Z,31.52
2022-09-30T20:33:21.485Z,34.40
2022-09-30T20:35:49.374Z,17.52
2022-09-30T20:38:25.253Z,14.45
2022-09-30T20:40:59.926Z,19.23
2022-09-30T20:43:32.518Z,16.50
2022-09-30T20:46:11.013Z,17.00
2022-09-30T20:48:50.724Z,18.17
2022-09-30T20:51:24.981Z,19.85
2022-09-30T20:53:56.624Z,16.52
2022-09-30T20:57:12.723Z,18.92
2022-09-30T20:59:56.700Z,20.63
2022-09-30T21:05:25.611Z,16.48
2022-09-30T21:07:55.410Z,17.58
2022-09-30T21:10:30.241Z,14.85
2022-09-30T21:13:00.865Z,16.00
2022-09-30T21:15:28.813Z,17.45
2022-09-30T21:18:00.559Z,31.85
2022-09-30T21:20:30.935Z,35.65
2022-09-30T21:22:59.019Z,17.42
2022-09-30T21:25:35.369Z,15.80
2022-09-30T21:28:02.275Z,15.10
2022-09-30T21:30:28.999Z,17.02
2022-09-30T21:32:56.319Z,26.27
2022-09-30T21:35:23.023Z,18.45
2022-09-30T21:37:50.104Z,16.33
2022-09-30T21:40:18.761Z,15.27
2022-09-30T21:45:27.647Z,16.60
2022-09-30T21:48:11.344Z,14.13
2022-09-30T21:50:38.233Z,17.48
2022-09-30T21:53:06.697Z,18.33
2022-09-30T21:55:34.700Z,14.07
2022-09-30T21:58:01.639Z,18.05
2022-09-30T22:00:29.244Z,14.80
2022-09-30T22:02:55.979Z,16.33
2022-09-30T22:05:22.809Z,15.07
2022-09-30T22:07:56.648Z,14.82
2022-09-30T22:10:23.374Z,15.02
2022-09-30T22:12:50.133Z,16.42
2022-09-30T22:15:17.508Z,16.38
2022-09-30T22:17:44.351Z,17.38
2022-09-30T22:20:12.196Z,16.02
2022-09-30T22:22:43.280Z,14.50
2022-09-30T22:25:14.340Z,14.82
2022-09-30T22:27:41.354Z,17.30
2022-09-30T22:30:09.147Z,14.93
2022-09-30T22:32:35.867Z,17.23
2022-09-30T22:35:21.586Z,14.77
2022-09-30T22:38:10.306Z,16.30
2022-09-30T22:40:37.176Z,16.45
2022-09-30T22:43:04.541Z,15.13
2022-09-30T22:45:31.182Z,19.95
2022-09-30T22:47:58.623Z,31.02
2022-09-30T22:50:28.338Z,17.00
2022-09-30T22:52:54.970Z,16.73
2022-09-30T22:55:22.433Z,15.52
2022-09-30T22:57:52.355Z,16.77
2022-09-30T23:00:19.096Z,17.10
2022-09-30T23:02:50.957Z,18.13
2022-09-30T23:05:21.383Z,22.60
2022-09-30T23:07:48.023Z,15.85
2022-09-30T23:10:14.750Z,15.43
2022-09-30T23:12:41.539Z,16.27
2022-09-30T23:15:08.485Z,13.43
2022-09-30T23:17:35.890Z,14.50
2022-09-30T23:20:02.660Z,16.33
2022-09-30T23:22:29.223Z,16.15
2022-09-30T23:24:55.749Z,17.55
2022-09-30T23:27:24.928Z,18.00
2022-09-30T23:29:51.699Z,16.73
2022-09-30T23:32:18.562Z,17.02
2022-09-30T23:34:45.575Z,17.50
2022-09-30T23:37:43.341Z,15.02
2022-09-30T23:40:02.462Z,16.15
2022-09-30T23:42:33.501Z,15.48
2022-09-30T23:45:00.710Z,13.95
2022-09-30T23:47:30.138Z,15.75
2022-09-30T23:49:58.450Z,18.42
2022-09-30T23:52:25.690Z,16.83
2022-09-30T23:54:55.738Z,17.58
2022-09-30T23:57:22.567Z,16.17
2022-09-30T23:59:49.696Z,19.70
